Time;durP1;ratioP1;P1;durP2;ratioP2;P2;SDS_P1;SDS_P2;PMS_P1;PMS_P2;Temp;Humidity;BMP_temperature;BMP_pressure;BME280_temperature;BME280_humidity;BME280_pressure;Samples;Min_cycle;Max_cycle;Signal;HPM_P1;HPM_P2
2022/06/16 00:02:14;;;;;;;9.70;6.10;;;;;;;13.43;60.32;98900.65;433426;1270;108880;-41
2022/06/16 00:12:22;;;;;;;6.90;6.20;;;;;;;13.38;60.57;98896.52;432900;1268;99278;-42
2022/06/16 00:22:30;;;;;;;8.10;7.10;;;;;;;13.37;60.78;98885.80;433066;1269;112430;-43
2022/06/16 00:32:37;;;;;;;9.50;6.10;;;;;;;13.42;60.73;98882.30;433187;1270;108962;-42
2022/06/16 00:42:46;;;;;;;10.30;4.90;;;;;;;13.39;60.88;98866.38;433088;1269;99353;-45
2022/06/16 00:52:53;;;;;;;8.00;6.40;;;;;;;13.41;61.07;98855.63;433306;1268;109186;-44
2022/06/16 01:03:00;;;;;;;12.40;6.70;;;;;;;13.44;61.23;98847.58;433140;1270;98866;-41
2022/06/16 01:24:20;;;;;;;8.60;5.40;;;;;;;13.23;61.32;98831.48;433027;1271;108492;-43
2022/06/16 01:34:27;;;;;;;5.90;3.00;;;;;;;13.50;61.31;98831.64;434162;1258;98857;-42
2022/06/16 01:44:36;;;;;;;6.00;3.40;;;;;;;13.61;61.17;98827.23;433557;1267;109421;-42
2022/06/16 01:54:48;;;;;;;4.80;3.10;;;;;;;13.68;61.02;98825.41;433665;1267;99264;-42
2022/06/16 02:05:01;;;;;;;5.40;3.40;;;;;;;13.48;60.90;98824.11;433731;1267;112472;-42
2022/06/16 02:15:15;;;;;;;7.70;3.90;;;;;;;13.15;61.16;98821.31;433763;1267;108783;-42
2022/06/16 02:25:22;;;;;;;9.20;4.80;;;;;;;12.89;61.40;98820.29;433627;1267;98857;-41
2022/06/16 02:35:26;;;;;;;3.40;3.10;;;;;;;12.82;61.64;98819.16;433152;1268;107138;-40
2022/06/16 02:45:39;;;;;;;7.60;3.60;;;;;;;12.81;62.03;98817.83;434287;1267;99269;-42
2022/06/16 02:55:44;;;;;;;12.00;4.60;;;;;;;12.75;62.48;98812.52;434276;1267;112491;-42
2022/06/16 03:05:51;;;;;;;8.80;4.10;;;;;;;12.78;62.90;98814.42;434342;1268;108758;-42
2022/06/16 03:16:00;;;;;;;11.60;4.20;;;;;;;12.87;63.07;98815.80;433884;1266;99311;-44
2022/06/16 03:26:05;;;;;;;;;;;;;;;13.43;62.74;98811.55;434129;1267;109648;-45
2022/06/16 03:36:10;;;;;;;9.50;4.60;;;;;;;13.54;62.82;98808.43;433992;1268;99262;-42
2022/06/16 03:46:18;;;;;;;8.80;5.50;;;;;;;13.45;63.02;98801.70;434025;1267;112586;-45
2022/06/16 03:56:25;;;;;;;6.80;5.30;;;;;;;14.42;62.87;98792.20;434227;1267;108845;-41
2022/06/16 04:06:33;;;;;;;6.30;4.50;;;;;;;16.61;61.65;98787.09;433894;1266;98856;-42
2022/06/16 04:16:45;;;;;;;6.90;4.10;;;;;;;19.27;59.85;98773.17;433974;1268;109271;-45
2022/06/16 04:26:54;;;;;;;6.60;3.90;;;;;;;21.33;57.32;98772.64;434139;1268;99283;-43
2022/06/16 04:37:01;;;;;;;6.40;3.70;;;;;;;22.51;54.81;98766.59;434048;1267;112319;-42
2022/06/16 04:47:07;;;;;;;4.70;3.80;;;;;;;22.50;52.28;98760.93;433975;1268;108062;-41
2022/06/16 04:57:15;;;;;;;13.90;4.90;;;;;;;21.10;51.87;98760.31;434028;1268;99284;-40
2022/06/16 05:07:22;;;;;;;7.00;4.40;;;;;;;21.83;50.98;98761.98;434296;1268;112727;-40
2022/06/16 05:17:30;;;;;;;8.80;4.00;;;;;;;21.93;49.92;98751.52;434142;1267;108787;-42
2022/06/16 05:27:37;;;;;;;5.50;3.60;;;;;;;21.51;49.18;98748.19;434141;1268;98834;-42
2022/06/16 05:37:45;;;;;;;8.10;3.60;;;;;;;21.59;48.94;98747.13;433955;1268;112062;-41
2022/06/16 05:47:53;;;;;;;8.60;4.60;;;;;;;21.61;49.16;98737.89;433571;1268;108489;-41
2022/06/16 05:58:01;;;;;;;7.50;4.40;;;;;;;22.53;49.20;98729.95;433989;1268;99247;-41
2022/06/16 06:18:32;;;;;;;9.60;4.30;;;;;;;23.64;48.25;98719.59;434048;1268;99256;-41
2022/06/16 06:28:39;;;;;;;7.00;3.90;;;;;;;23.74;46.78;98719.91;434183;1267;111998;-42
2022/06/16 06:38:44;;;;;;;;;;;;;;;23.83;46.52;98718.45;434130;1268;108769;-41
2022/06/16 06:48:52;;;;;;;7.70;3.70;;;;;;;24.20;46.35;98712.95;434100;1268;99250;-41
2022/06/16 06:59:02;;;;;;;5.80;3.30;;;;;;;24.30;45.63;98701.80;433632;1268;108877;-43
2022/06/16 07:09:10;;;;;;;11.80;4.00;;;;;;;24.49;45.36;98691.34;434066;1268;99243;-44
2022/06/16 07:29:24;;;;;;;5.60;3.40;;;;;;;24.90;43.90;98678.55;434073;1267;108834;-40
2022/06/16 07:39:29;;;;;;;;;;;;;;;24.44;45.03;98668.56;433952;1268;99371;-41
2022/06/16 07:49:36;;;;;;;7.00;3.10;;;;;;;24.68;45.83;98662.34;433892;1268;108784;-41
2022/06/16 07:59:42;;;;;;;9.90;3.80;;;;;;;25.74;45.74;98672.34;434096;1268;98834;-41
2022/06/16 08:09:50;;;;;;;4.80;3.30;;;;;;;26.84;45.40;98665.44;434074;1268;112508;-43
2022/06/16 08:19:58;;;;;;;6.50;3.40;;;;;;;27.17;44.47;98662.92;434049;1268;108810;-44
2022/06/16 08:30:10;;;;;;;6.70;3.70;;;;;;;26.55;42.97;98656.91;433812;1267;98048;-41
2022/06/16 08:40:19;;;;;;;5.90;3.20;;;;;;;26.74;43.55;98657.73;433807;1268;107817;-43
2022/06/16 08:50:24;;;;;;;3.50;2.90;;;;;;;27.06;42.95;98653.34;433913;1267;97960;-41
2022/06/16 09:00:30;;;;;;;2.80;2.40;;;;;;;27.28;43.03;98651.17;434116;1267;112401;-47
2022/06/16 09:20:38;;;;;;;4.40;2.60;;;;;;;27.01;42.48;98645.63;434124;1267;98700;-41
2022/06/16 09:30:49;;;;;;;4.10;2.40;;;;;;;26.97;43.06;98650.45;433415;1268;740522;-42
2022/06/16 09:40:58;;;;;;;4.20;3.20;;;;;;;27.55;42.53;98652.11;434280;1268;99240;-42
2022/06/16 09:51:11;;;;;;;3.50;3.10;;;;;;;27.60;42.07;98649.72;434265;1268;111715;-42
2022/06/16 10:01:22;;;;;;;10.90;3.40;;;;;;;27.68;41.53;98638.39;433731;1267;108753;-42
2022/06/16 10:11:36;;;;;;;4.40;3.00;;;;;;;27.87;41.26;98636.70;434316;1268;98850;-43
2022/06/16 10:21:43;;;;;;;4.10;2.50;;;;;;;28.08;40.69;98636.17;433946;1268;108523;-41
2022/06/16 10:31:51;;;;;;;4.00;2.90;;;;;;;28.11;40.53;98631.36;434264;1268;99913;-42
2022/06/16 10:42:05;;;;;;;3.50;2.60;;;;;;;28.39;40.42;98624.23;434283;1268;112375;-43
2022/06/16 10:52:22;;;;;;;3.80;2.40;;;;;;;28.54;40.21;98625.48;434296;1268;108797;-43
2022/06/16 11:02:35;;;;;;;6.00;2.50;;;;;;;28.79;40.06;98619.64;434120;1268;99951;-42
2022/06/16 11:22:57;;;;;;;5.20;2.50;;;;;;;29.76;39.44;98605.76;433801;1267;99136;-42
2022/06/16 11:33:07;;;;;;;6.30;2.50;;;;;;;28.94;38.91;98598.63;434348;1268;112395;-41
2022/06/16 11:43:24;;;;;;;5.50;2.80;;;;;;;28.34;39.29;98585.41;434098;1268;108781;-42
2022/06/16 11:53:36;;;;;;;6.90;3.20;;;;;;;28.34;40.17;98569.02;434104;1268;98818;-42
2022/06/16 12:04:03;;;;;;;6.30;2.70;;;;;;;28.14;40.21;98538.55;434120;1267;108875;-45
2022/06/16 12:14:24;;;;;;;4.10;2.70;;;;;;;27.63;40.87;98528.72;434117;1268;98944;-41
2022/06/16 12:24:36;;;;;;;4.80;3.10;;;;;;;26.90;41.64;98529.31;434180;1267;112179;-43
2022/06/16 12:34:40;;;;;;;14.40;4.40;;;;;;;25.98;42.33;98572.34;433990;1267;107857;-42
2022/06/16 12:44:53;;;;;;;9.30;3.50;;;;;;;23.55;44.86;98606.08;433666;1267;98814;-40
2022/06/16 12:55:03;;;;;;;8.00;4.30;;;;;;;20.87;47.89;98570.94;433969;1268;108796;-42
2022/06/16 13:15:15;;;;;;;15.90;7.10;;;;;;;21.14;53.69;98596.44;433682;1267;112347;-41
2022/06/16 13:36:07;;;;;;;5.20;4.10;;;;;;;19.56;56.92;98654.52;419527;1309;636079;-42
2022/06/16 13:46:14;;;;;;;7.60;3.20;;;;;;;18.39;58.94;98612.41;429903;1277;371021;-41
2022/06/16 13:56:33;;;;;;;5.00;3.40;;;;;;;17.95;60.15;98580.42;430850;1276;109125;-43
2022/06/16 14:06:45;;;;;;;11.50;4.10;;;;;;;17.82;61.06;98620.09;434320;1266;96026;-43
2022/06/16 14:16:57;;;;;;;10.60;5.20;;;;;;;17.49;62.35;98689.85;434018;1267;108473;-41
2022/06/16 14:27:10;;;;;;;6.30;4.10;;;;;;;17.68;62.78;98651.08;434408;1267;108584;-42
2022/06/16 14:37:23;;;;;;;7.00;3.70;;;;;;;17.32;62.73;98629.23;434228;1265;95010;-41
2022/06/16 14:47:31;;;;;;;5.60;3.50;;;;;;;17.15;63.12;98602.00;434167;1267;94666;-41
2022/06/16 14:57:37;;;;;;;4.30;3.50;;;;;;;17.57;63.02;98619.35;434065;1267;107177;-43
2022/06/16 15:07:46;;;;;;;4.50;3.10;;;;;;;17.39;63.78;98672.67;434445;1266;108900;-41
2022/06/16 15:28:18;;;;;;;5.10;4.10;;;;;;;18.01;64.30;98619.56;434199;1266;109943;-43
2022/06/16 15:38:27;;;;;;;9.80;5.90;;;;;;;17.55;65.64;98543.97;434239;1266;108943;-39
2022/06/16 15:58:56;;;;;;;6.80;5.70;;;;;;;17.90;66.97;98492.08;434157;1267;108358;-43
2022/06/16 16:09:03;;;;;;;8.00;5.60;;;;;;;18.66;67.25;98523.22;433917;1266;96242;-42
2022/06/16 16:19:14;;;;;;;6.40;5.00;;;;;;;19.30;66.74;98522.61;434349;1267;109433;-41
2022/06/16 16:29:20;;;;;;;6.90;4.90;;;;;;;19.57;66.15;98526.27;434304;1267;108294;-42
2022/06/16 16:39:25;;;;;;;9.50;4.70;;;;;;;19.68;65.89;98541.64;434178;1267;109304;-41
2022/06/16 16:49:49;;;;;;;5.00;4.50;;;;;;;19.79;65.62;98573.92;434244;1266;95653;-42
2022/06/16 16:59:57;;;;;;;7.00;3.90;;;;;;;19.68;65.64;98584.13;434084;1266;108471;-41
2022/06/16 17:10:03;;;;;;;7.20;4.20;;;;;;;19.63;65.70;98602.80;434235;1266;109096;-41
2022/06/16 17:20:11;;;;;;;4.50;3.80;;;;;;;19.30;65.52;98670.91;434173;1267;96157;-42
2022/06/16 17:30:23;;;;;;;10.90;7.00;;;;;;;18.51;66.49;98682.56;434073;1266;109706;-42
2022/06/16 17:40:37;;;;;;;8.40;5.80;;;;;;;18.36;67.45;98655.27;434186;1267;96157;-42
2022/06/16 17:50:44;;;;;;;8.10;5.50;;;;;;;18.20;67.87;98646.08;434162;1267;109771;-42
2022/06/16 18:00:51;;;;;;;6.80;5.20;;;;;;;17.92;68.75;98671.98;433974;1266;108818;-42
2022/06/16 18:10:58;;;;;;;5.90;5.10;;;;;;;17.63;69.33;98693.83;434262;1267;96292;-43
2022/06/16 18:21:07;;;;;;;5.70;5.20;;;;;;;17.38;69.70;98707.73;434166;1267;108756;-41
2022/06/16 18:31:12;;;;;;;6.20;4.50;;;;;;;17.06;69.89;98722.39;434182;1267;96202;-42
2022/06/16 18:41:21;;;;;;;5.30;4.80;;;;;;;16.65;70.70;98712.05;434147;1267;108554;-41
2022/06/16 18:51:28;;;;;;;6.30;5.20;;;;;;;16.51;71.07;98679.45;433964;1267;108695;-41
2022/06/16 19:01:37;;;;;;;8.60;5.50;;;;;;;16.36;72.18;98679.30;434203;1267;96173;-41
2022/06/16 19:22:10;;;;;;;5.60;5.10;;;;;;;16.23;73.32;98715.45;434093;1265;96206;-41
2022/06/16 19:32:17;;;;;;;;;;;;;;;16.33;73.46;98725.40;434079;1267;110004;-41
2022/06/16 19:42:25;;;;;;;10.30;6.60;;;;;;;16.36;73.56;98739.88;434043;1267;108825;-43
2022/06/16 19:52:33;;;;;;;10.60;7.40;;;;;;;16.52;74.17;98751.64;434140;1266;96578;-41
2022/06/16 20:02:41;;;;;;;9.40;8.30;;;;;;;16.70;73.73;98767.10;434158;1266;108848;-41
2022/06/16 20:12:49;;;;;;;13.40;9.50;;;;;;;16.72;74.15;98783.55;434115;1267;96201;-43
2022/06/16 20:22:57;;;;;;;9.70;8.60;;;;;;;16.75;73.93;98781.27;433946;1267;109712;-42
2022/06/16 20:53:15;;;;;;;10.60;8.60;;;;;;;16.68;73.32;98766.73;434117;1267;95259;-40
2022/06/16 21:03:22;;;;;;;15.80;11.20;;;;;;;16.75;73.20;98763.75;434216;1266;109057;-41
2022/06/16 21:13:30;;;;;;;16.90;12.60;;;;;;;16.55;72.88;98768.14;434308;1267;96563;-45
2022/06/16 21:23:37;;;;;;;8.50;7.50;;;;;;;16.24;73.11;98775.22;434142;1267;107815;-42
2022/06/16 21:33:44;;;;;;;11.50;7.40;;;;;;;16.12;73.13;98792.26;434255;1267;96260;-41
2022/06/16 21:43:52;;;;;;;8.10;6.10;;;;;;;15.87;73.32;98799.67;434060;1267;109825;-42
2022/06/16 21:54:00;;;;;;;10.80;6.90;;;;;;;15.54;73.55;98812.43;434098;1267;107548;-43
2022/06/16 22:04:13;;;;;;;8.90;6.40;;;;;;;15.39;74.11;98807.30;434126;1267;95331;-42
2022/06/16 22:24:41;;;;;;;8.40;5.60;;;;;;;15.38;74.37;98801.70;433870;1267;96153;-40
2022/06/16 22:44:59;;;;;;;8.30;6.80;;;;;;;15.22;74.15;98812.31;434106;1267;107114;-40
2022/06/16 23:05:35;;;;;;;11.40;6.40;;;;;;;15.14;74.53;98805.75;434334;1267;109822;-44
2022/06/16 23:15:49;;;;;;;10.30;6.10;;;;;;;15.11;74.74;98794.95;434139;1267;107845;-42
2022/06/16 23:25:57;;;;;;;9.00;7.00;;;;;;;14.94;74.60;98788.06;434268;1267;96265;-41
2022/06/16 23:36:04;;;;;;;10.50;5.60;;;;;;;14.77;74.64;98782.22;434191;1267;110156;-41
2022/06/16 23:46:14;;;;;;;6.00;5.10;;;;;;;14.56;74.67;98782.66;434118;1267;107706;-41
2022/06/16 23:56:27;;;;;;;6.00;5.40;;;;;;;14.48;74.89;98790.15;434245;1267;96131;-42
